createdAt,value
2022-09-30T00:05:48.990Z,1.45
2022-09-30T00:19:48.948Z,1.60
2022-09-30T00:33:48.960Z,1.00
2022-09-30T00:47:49.016Z,1.30
2022-09-30T01:01:49.142Z,1.10
2022-09-30T01:15:49.137Z,1.10
2022-09-30T01:29:49.096Z,0.80
2022-09-30T01:43:49.096Z,1.30
2022-09-30T01:57:49.132Z,1.00
2022-09-30T02:11:49.187Z,1.20
2022-09-30T02:25:49.118Z,0.80
2022-09-30T02:39:49.121Z,1.30
2022-09-30T02:53:49.130Z,0.70
2022-09-30T03:07:49.137Z,1.20
2022-09-30T03:21:49.132Z,0.80
2022-09-30T03:35:49.159Z,0.80
2022-09-30T03:49:49.172Z,0.60
2022-09-30T04:03:49.202Z,1.10
2022-09-30T04:17:49.242Z,0.40
2022-09-30T04:31:49.282Z,0.60
2022-09-30T04:45:49.376Z,0.60
2022-09-30T04:59:49.360Z,0.80
2022-09-30T05:14:49.359Z,0.70
2022-09-30T05:29:49.358Z,3.60
2022-09-30T05:45:49.368Z,6.70
2022-09-30T06:00:49.370Z,5.50
2022-09-30T06:15:49.372Z,8.00
2022-09-30T06:30:49.377Z,6.80
2022-09-30T06:45:49.440Z,5.70
2022-09-30T07:00:49.435Z,5.50
2022-09-30T07:15:49.436Z,4.00
2022-09-30T07:30:49.437Z,4.30
2022-09-30T07:45:49.474Z,4.00
2022-09-30T08:00:49.495Z,4.10
2022-09-30T08:15:49.478Z,3.40
2022-09-30T08:30:49.462Z,2.35
2022-09-30T08:45:49.717Z,3.50
2022-09-30T09:00:49.844Z,2.40
2022-09-30T09:15:49.612Z,1.70
2022-09-30T09:30:49.663Z,1.80
2022-09-30T09:45:49.685Z,1.60
2022-09-30T09:49:00.535Z,1.70
2022-09-30T09:59:10.062Z,1.90
2022-09-30T10:14:10.277Z,2.80
2022-09-30T10:29:10.287Z,1.70
2022-09-30T10:43:10.537Z,2.10
2022-09-30T10:57:10.521Z,2.00
2022-09-30T11:12:11.072Z,1.70
2022-09-30T11:27:10.616Z,1.15
2022-09-30T11:42:10.682Z,1.75
2022-09-30T11:57:10.917Z,1.80
2022-09-30T12:12:15.448Z,11.20
2022-09-30T12:27:11.007Z,8.90
2022-09-30T12:42:11.232Z,7.50
2022-09-30T12:58:11.306Z,7.70
2022-09-30T13:13:11.373Z,5.60
2022-09-30T13:28:11.522Z,7.15
2022-09-30T13:43:11.529Z,6.60
2022-09-30T13:58:11.602Z,5.30
2022-09-30T14:13:11.643Z,7.00
2022-09-30T14:28:11.736Z,6.40
2022-09-30T14:43:11.744Z,5.30
2022-09-30T14:58:11.723Z,5.80
2022-09-30T15:13:11.739Z,5.50
2022-09-30T15:28:11.724Z,4.60
2022-09-30T15:43:11.723Z,4.90
2022-09-30T15:58:11.705Z,3.90
2022-09-30T16:13:11.746Z,4.00
2022-09-30T16:28:11.794Z,4.00
2022-09-30T16:43:11.928Z,3.50
2022-09-30T16:58:11.788Z,3.90
2022-09-30T17:13:11.873Z,4.00
2022-09-30T17:28:11.911Z,3.40
2022-09-30T17:42:11.857Z,3.90
2022-09-30T17:56:11.867Z,3.70
2022-09-30T18:10:11.883Z,5.30
2022-09-30T18:24:11.992Z,2.90
2022-09-30T18:38:12.099Z,3.80
2022-09-30T18:52:12.015Z,3.00
2022-09-30T19:06:12.044Z,4.50
2022-09-30T19:20:12.053Z,9.40
2022-09-30T19:34:14.759Z,9.90
2022-09-30T19:48:12.106Z,11.40
2022-09-30T20:02:12.125Z,11.30
2022-09-30T20:16:12.142Z,11.70
2022-09-30T20:30:12.086Z,11.90
2022-09-30T20:44:12.125Z,11.20
2022-09-30T20:58:12.132Z,10.60
2022-09-30T21:12:14.352Z,11.20
2022-09-30T21:26:12.144Z,9.20
2022-09-30T21:40:12.166Z,8.80
2022-09-30T21:54:12.375Z,8.80
2022-09-30T22:08:12.247Z,8.60
2022-09-30T22:22:12.266Z,8.40
2022-09-30T22:36:12.276Z,7.10
2022-09-30T22:50:12.273Z,7.00
2022-09-30T23:04:12.300Z,5.90
2022-09-30T23:18:12.301Z,5.20
2022-09-30T23:32:12.355Z,6.30
2022-09-30T23:46:12.347Z,5.80
